Terminal Aerodrome Forecast
Issued by NWS Blacksburg, VA

Current Version | Previous Version | Text Only | Print | Product List | Glossary Off
Versions: 1 2 3 4 5 6 7 8 9 10 11 12 13 14 15 16 17 18 19 20 21 22

000
FTUS41 KRNK 250529
TAFBLF
TAF
KBLF 250529Z 2506/2606 00000KT P6SM SKC
     FM250900 12003KT 4SM BR SCT005
      TEMPO 2509/2513 1SM BR OVC005
     FM251400 17003KT P6SM SKC
     FM251700 12006KT P6SM BKN035=

USA.gov is the U.S. government's official web portal to all federal, state and local government web resources and services.